sensor_id;sensor_type;location;lat;lon;timestamp;pressure;altitude;pressure_sealevel;temperature;humidity
20620;BME280;10469;42.720;23.252;2023-05-02T00:00:37;95185.53;;;11.99;100.00
20620;BME280;10469;42.720;23.252;2023-05-02T00:03:03;95179.69;;;12.02;100.00
20620;BME280;10469;42.720;23.252;2023-05-02T00:05:30;95166.50;;;12.00;100.00
20620;BME280;10469;42.720;23.252;2023-05-02T00:07:56;95170.31;;;12.04;100.00
20620;BME280;10469;42.720;23.252;2023-05-02T00:10:21;95186.66;;;12.15;100.00
20620;BME280;10469;42.720;23.252;2023-05-02T00:12:47;95182.56;;;12.12;100.00
20620;BME280;10469;42.720;23.252;2023-05-02T00:15:12;95181.41;;;12.08;100.00
20620;BME280;10469;42.720;23.252;2023-05-02T00:17:41;95178.06;;;12.01;100.00
20620;BME280;10469;42.720;23.252;2023-05-02T00:20:10;95172.06;;;12.11;100.00
20620;BME280;10469;42.720;23.252;2023-05-02T00:22:37;95182.19;;;12.20;100.00
20620;BME280;10469;42.720;23.252;2023-05-02T00:25:03;95190.97;;;12.16;100.00
20620;BME280;10469;42.720;23.252;2023-05-02T00:27:29;95197.16;;;12.16;100.00
20620;BME280;10469;42.720;23.252;2023-05-02T00:29:54;95196.59;;;12.14;100.00
20620;BME280;10469;42.720;23.252;2023-05-02T00:32:20;95194.28;;;12.06;100.00
20620;BME280;10469;42.720;23.252;2023-05-02T00:34:46;95197.44;;;12.03;100.00
20620;BME280;10469;42.720;23.252;2023-05-02T00:37:11;95206.31;;;12.03;100.00
20620;BME280;10469;42.720;23.252;2023-05-02T00:39:37;95201.31;;;11.95;100.00
20620;BME280;10469;42.720;23.252;2023-05-02T00:42:03;95212.31;;;11.94;100.00
20620;BME280;10469;42.720;23.252;2023-05-02T00:44:29;95209.97;;;11.86;100.00
20620;BME280;10469;42.720;23.252;2023-05-02T00:46:55;95190.13;;;11.75;100.00
20620;BME280;10469;42.720;23.252;2023-05-02T00:49:20;95210.34;;;11.89;100.00
20620;BME280;10469;42.720;23.252;2023-05-02T00:51:46;95222.25;;;11.93;100.00
20620;BME280;10469;42.720;23.252;2023-05-02T00:54:12;95223.75;;;11.89;100.00
20620;BME280;10469;42.720;23.252;2023-05-02T00:56:38;95222.59;;;11.97;100.00
20620;BME280;10469;42.720;23.252;2023-05-02T00:59:05;95213.47;;;11.98;100.00
20620;BME280;10469;42.720;23.252;2023-05-02T01:01:56;95216.34;;;12.20;100.00
20620;BME280;10469;42.720;23.252;2023-05-02T01:04:53;95221.97;;;12.18;100.00
20620;BME280;10469;42.720;23.252;2023-05-02T01:07:50;95207.66;;;12.29;100.00
20620;BME280;10469;42.720;23.252;2023-05-02T01:10:27;95199.38;;;12.31;100.00
20620;BME280;10469;42.720;23.252;2023-05-02T01:13:21;95203.53;;;12.39;100.00
20620;BME280;10469;42.720;23.252;2023-05-02T01:15:50;95199.94;;;12.33;100.00
20620;BME280;10469;42.720;23.252;2023-05-02T01:18:20;95202.50;;;12.40;100.00
20620;BME280;10469;42.720;23.252;2023-05-02T01:20:51;95195.97;;;12.36;100.00
20620;BME280;10469;42.720;23.252;2023-05-02T01:23:27;95198.31;;;12.32;100.00
20620;BME280;10469;42.720;23.252;2023-05-02T01:25:59;95192.19;;;12.37;100.00
20620;BME280;10469;42.720;23.252;2023-05-02T01:28:59;95186.81;;;12.37;100.00
20620;BME280;10469;42.720;23.252;2023-05-02T01:31:29;95188.00;;;12.29;100.00
20620;BME280;10469;42.720;23.252;2023-05-02T01:33:57;95183.81;;;12.21;100.00
20620;BME280;10469;42.720;23.252;2023-05-02T01:36:27;95182.78;;;12.22;100.00
20620;BME280;10469;42.720;23.252;2023-05-02T01:38:55;95188.53;;;12.14;100.00
20620;BME280;10469;42.720;23.252;2023-05-02T01:41:24;95188.75;;;12.13;100.00
20620;BME280;10469;42.720;23.252;2023-05-02T01:43:50;95199.50;;;12.13;100.00
20620;BME280;10469;42.720;23.252;2023-05-02T01:46:19;95207.56;;;12.13;100.00
20620;BME280;10469;42.720;23.252;2023-05-02T01:48:46;95187.50;;;12.03;100.00
20620;BME280;10469;42.720;23.252;2023-05-02T01:51:16;95189.53;;;11.96;100.00
20620;BME280;10469;42.720;23.252;2023-05-02T01:53:43;95199.94;;;11.93;100.00
20620;BME280;10469;42.720;23.252;2023-05-02T01:56:10;95205.88;;;11.95;100.00
20620;BME280;10469;42.720;23.252;2023-05-02T01:58:37;95188.22;;;11.87;100.00
20620;BME280;10469;42.720;23.252;2023-05-02T02:01:04;95192.09;;;11.91;100.00
20620;BME280;10469;42.720;23.252;2023-05-02T02:03:30;95193.47;;;11.82;100.00
20620;BME280;10469;42.720;23.252;2023-05-02T02:05:57;95181.91;;;11.81;100.00
20620;BME280;10469;42.720;23.252;2023-05-02T02:08:23;95189.16;;;11.81;100.00
20620;BME280;10469;42.720;23.252;2023-05-02T02:10:53;95187.19;;;11.76;100.00
20620;BME280;10469;42.720;23.252;2023-05-02T02:13:44;95191.16;;;11.74;100.00
20620;BME280;10469;42.720;23.252;2023-05-02T02:16:18;95187.09;;;11.71;100.00
20620;BME280;10469;42.720;23.252;2023-05-02T02:18:46;95187.34;;;11.58;100.00
20620;BME280;10469;42.720;23.252;2023-05-02T02:21:15;95187.09;;;11.60;100.00
20620;BME280;10469;42.720;23.252;2023-05-02T02:23:43;95198.06;;;11.58;100.00
20620;BME280;10469;42.720;23.252;2023-05-02T02:26:12;95184.66;;;11.46;100.00
20620;BME280;10469;42.720;23.252;2023-05-02T02:28:38;95195.84;;;11.55;100.00
20620;BME280;10469;42.720;23.252;2023-05-02T02:31:04;95199.03;;;11.40;100.00
20620;BME280;10469;42.720;23.252;2023-05-02T02:33:30;95203.78;;;11.38;100.00
20620;BME280;10469;42.720;23.252;2023-05-02T02:36:27;95202.75;;;11.27;100.00
20620;BME280;10469;42.720;23.252;2023-05-02T02:39:07;95205.28;;;11.22;100.00
20620;BME280;10469;42.720;23.252;2023-05-02T02:41:40;95201.00;;;11.10;100.00
20620;BME280;10469;42.720;23.252;2023-05-02T02:48:18;95221.88;;;10.36;100.00
20620;BME280;10469;42.720;23.252;2023-05-02T02:50:19;95221.06;;;9.98;100.00
20620;BME280;10469;42.720;23.252;2023-05-02T02:53:07;95230.31;;;9.41;100.00
20620;BME280;10469;42.720;23.252;2023-05-02T02:55:46;95230.56;;;9.39;100.00
20620;BME280;10469;42.720;23.252;2023-05-02T02:58:42;95231.06;;;9.29;100.00
20620;BME280;10469;42.720;23.252;2023-05-02T03:01:15;95241.34;;;9.33;100.00
20620;BME280;10469;42.720;23.252;2023-05-02T03:03:43;95235.78;;;9.27;100.00
20620;BME280;10469;42.720;23.252;2023-05-02T03:06:09;95235.63;;;9.22;100.00
20620;BME280;10469;42.720;23.252;2023-05-02T03:08:41;95232.09;;;9.28;100.00
20620;BME280;10469;42.720;23.252;2023-05-02T03:11:07;95247.03;;;9.36;100.00
20620;BME280;10469;42.720;23.252;2023-05-02T03:13:34;95252.19;;;9.38;100.00
20620;BME280;10469;42.720;23.252;2023-05-02T03:18:53;95246.47;;;9.34;100.00
20620;BME280;10469;42.720;23.252;2023-05-02T03:21:18;95256.88;;;9.67;100.00
20620;BME280;10469;42.720;23.252;2023-05-02T03:23:44;95240.72;;;10.11;100.00
20620;BME280;10469;42.720;23.252;2023-05-02T03:26:09;95251.84;;;10.44;100.00
20620;BME280;10469;42.720;23.252;2023-05-02T03:28:35;95261.50;;;10.64;100.00
20620;BME280;10469;42.720;23.252;2023-05-02T03:31:00;95250.34;;;10.78;100.00
20620;BME280;10469;42.720;23.252;2023-05-02T03:33:26;95251.03;;;10.74;100.00
20620;BME280;10469;42.720;23.252;2023-05-02T03:35:52;95241.13;;;10.74;100.00
20620;BME280;10469;42.720;23.252;2023-05-02T03:38:17;95229.69;;;10.67;100.00
20620;BME280;10469;42.720;23.252;2023-05-02T03:40:43;95251.03;;;10.74;100.00
20620;BME280;10469;42.720;23.252;2023-05-02T03:43:08;95256.22;;;10.57;100.00
20620;BME280;10469;42.720;23.252;2023-05-02T03:45:35;95254.97;;;10.60;100.00
20620;BME280;10469;42.720;23.252;2023-05-02T03:48:01;95248.16;;;10.75;100.00
20620;BME280;10469;42.720;23.252;2023-05-02T03:50:27;95263.00;;;10.90;100.00
20620;BME280;10469;42.720;23.252;2023-05-02T03:52:52;95245.75;;;10.97;100.00
20620;BME280;10469;42.720;23.252;2023-05-02T03:55:18;95261.47;;;10.82;100.00
20620;BME280;10469;42.720;23.252;2023-05-02T03:57:43;95255.72;;;11.20;100.00
20620;BME280;10469;42.720;23.252;2023-05-02T04:00:09;95256.78;;;11.43;100.00
20620;BME280;10469;42.720;23.252;2023-05-02T04:02:35;95252.47;;;11.30;100.00
20620;BME280;10469;42.720;23.252;2023-05-02T04:05:01;95254.47;;;11.70;100.00
20620;BME280;10469;42.720;23.252;2023-05-02T04:07:26;95249.69;;;11.60;100.00
20620;BME280;10469;42.720;23.252;2023-05-02T04:09:52;95259.97;;;11.87;100.00
20620;BME280;10469;42.720;23.252;2023-05-02T04:12:19;95253.69;;;11.93;100.00
20620;BME280;10469;42.720;23.252;2023-05-02T04:14:44;95263.81;;;12.02;100.00
20620;BME280;10469;42.720;23.252;2023-05-02T04:17:10;95250.94;;;12.16;100.00
20620;BME280;10469;42.720;23.252;2023-05-02T04:19:35;95237.19;;;11.89;100.00
20620;BME280;10469;42.720;23.252;2023-05-02T04:22:01;95248.06;;;12.06;100.00
20620;BME280;10469;42.720;23.252;2023-05-02T04:24:27;95259.63;;;12.07;100.00
20620;BME280;10469;42.720;23.252;2023-05-02T04:26:53;95255.25;;;12.17;100.00
20620;BME280;10469;42.720;23.252;2023-05-02T04:29:19;95262.28;;;12.18;100.00
20620;BME280;10469;42.720;23.252;2023-05-02T04:31:44;95261.78;;;12.33;100.00
20620;BME280;10469;42.720;23.252;2023-05-02T04:34:10;95258.06;;;12.63;100.00
20620;BME280;10469;42.720;23.252;2023-05-02T04:36:36;95259.84;;;12.57;100.00
20620;BME280;10469;42.720;23.252;2023-05-02T04:39:02;95259.00;;;12.85;100.00
20620;BME280;10469;42.720;23.252;2023-05-02T04:41:29;95260.41;;;12.30;100.00
20620;BME280;10469;42.720;23.252;2023-05-02T04:43:54;95255.75;;;12.54;100.00
20620;BME280;10469;42.720;23.252;2023-05-02T04:46:20;95261.31;;;12.65;100.00
20620;BME280;10469;42.720;23.252;2023-05-02T04:48:45;95264.72;;;12.60;100.00
20620;BME280;10469;42.720;23.252;2023-05-02T04:51:11;95262.41;;;12.52;100.00
20620;BME280;10469;42.720;23.252;2023-05-02T04:53:37;95270.22;;;12.65;100.00
20620;BME280;10469;42.720;23.252;2023-05-02T04:56:03;95267.94;;;13.02;100.00
20620;BME280;10469;42.720;23.252;2023-05-02T04:58:28;95264.56;;;12.78;100.00
20620;BME280;10469;42.720;23.252;2023-05-02T05:00:54;95246.53;;;12.79;100.00
20620;BME280;10469;42.720;23.252;2023-05-02T05:03:20;95261.75;;;12.73;100.00
20620;BME280;10469;42.720;23.252;2023-05-02T05:05:45;95262.72;;;12.96;100.00
20620;BME280;10469;42.720;23.252;2023-05-02T05:08:11;95261.19;;;13.00;100.00
20620;BME280;10469;42.720;23.252;2023-05-02T05:10:36;95254.34;;;13.09;100.00
20620;BME280;10469;42.720;23.252;2023-05-02T05:13:02;95252.94;;;13.35;100.00
20620;BME280;10469;42.720;23.252;2023-05-02T05:15:28;95262.16;;;13.56;100.00
20620;BME280;10469;42.720;23.252;2023-05-02T05:17:54;95271.94;;;13.45;100.00
20620;BME280;10469;42.720;23.252;2023-05-02T05:20:19;95269.25;;;13.62;100.00
20620;BME280;10469;42.720;23.252;2023-05-02T05:22:45;95257.91;;;13.60;100.00
20620;BME280;10469;42.720;23.252;2023-05-02T05:25:11;95255.22;;;13.60;100.00
20620;BME280;10469;42.720;23.252;2023-05-02T05:27:37;95265.88;;;13.72;100.00
20620;BME280;10469;42.720;23.252;2023-05-02T05:30:06;95270.13;;;13.68;100.00
20620;BME280;10469;42.720;23.252;2023-05-02T05:32:33;95263.44;;;13.70;100.00
20620;BME280;10469;42.720;23.252;2023-05-02T05:34:58;95262.88;;;14.07;100.00
20620;BME280;10469;42.720;23.252;2023-05-02T05:37:24;95266.88;;;13.83;100.00
20620;BME280;10469;42.720;23.252;2023-05-02T05:39:49;95250.75;;;14.26;100.00
20620;BME280;10469;42.720;23.252;2023-05-02T05:42:15;95268.34;;;14.73;100.00
20620;BME280;10469;42.720;23.252;2023-05-02T05:44:41;95302.75;;;14.61;100.00
20620;BME280;10469;42.720;23.252;2023-05-02T05:47:06;95256.38;;;15.18;100.00
20620;BME280;10469;42.720;23.252;2023-05-02T05:49:32;95273.72;;;15.22;100.00
20620;BME280;10469;42.720;23.252;2023-05-02T05:52:00;95254.47;;;16.77;100.00
20620;BME280;10469;42.720;23.252;2023-05-02T05:54:26;95274.00;;;16.90;100.00
20620;BME280;10469;42.720;23.252;2023-05-02T05:56:51;95270.09;;;16.70;100.00
20620;BME280;10469;42.720;23.252;2023-05-02T05:59:17;95262.72;;;17.23;100.00
20620;BME280;10469;42.720;23.252;2023-05-02T06:01:42;95263.25;;;17.15;100.00
20620;BME280;10469;42.720;23.252;2023-05-02T06:04:07;95281.47;;;16.15;100.00
20620;BME280;10469;42.720;23.252;2023-05-02T06:06:33;95273.78;;;16.44;100.00
20620;BME280;10469;42.720;23.252;2023-05-02T06:08:59;95268.31;;;16.81;100.00
20620;BME280;10469;42.720;23.252;2023-05-02T06:11:25;95285.94;;;16.94;99.58
20620;BME280;10469;42.720;23.252;2023-05-02T06:13:51;95276.84;;;17.41;100.00
20620;BME280;10469;42.720;23.252;2023-05-02T06:16:17;95281.72;;;17.54;95.65
20620;BME280;10469;42.720;23.252;2023-05-02T06:18:43;95273.81;;;17.17;98.00
20620;BME280;10469;42.720;23.252;2023-05-02T06:21:09;95272.47;;;17.35;96.98
20620;BME280;10469;42.720;23.252;2023-05-02T06:23:34;95251.88;;;17.69;94.72
20620;BME280;10469;42.720;23.252;2023-05-02T06:26:01;95269.06;;;16.71;100.00
20620;BME280;10469;42.720;23.252;2023-05-02T06:28:27;95275.13;;;17.04;100.00
20620;BME280;10469;42.720;23.252;2023-05-02T06:31:00;95293.88;;;17.26;97.61
20620;BME280;10469;42.720;23.252;2023-05-02T06:33:32;95284.88;;;18.48;90.75
20620;BME280;10469;42.720;23.252;2023-05-02T06:35:58;95273.59;;;18.10;90.15
20620;BME280;10469;42.720;23.252;2023-05-02T06:38:24;95276.75;;;18.48;85.21
20620;BME280;10469;42.720;23.252;2023-05-02T06:40:50;95298.00;;;17.49;91.64
20620;BME280;10469;42.720;23.252;2023-05-02T06:43:16;95273.03;;;18.13;90.63
20620;BME280;10469;42.720;23.252;2023-05-02T06:45:42;95268.69;;;18.07;89.22
20620;BME280;10469;42.720;23.252;2023-05-02T06:48:09;95254.63;;;20.32;78.14
20620;BME280;10469;42.720;23.252;2023-05-02T06:50:34;95258.72;;;19.71;77.91
20620;BME280;10469;42.720;23.252;2023-05-02T06:53:00;95272.00;;;19.39;77.30
20620;BME280;10469;42.720;23.252;2023-05-02T06:55:26;95273.84;;;18.99;77.45
20620;BME280;10469;42.720;23.252;2023-05-02T06:57:53;95266.06;;;20.29;73.73
20620;BME280;10469;42.720;23.252;2023-05-02T07:00:19;95266.97;;;20.72;65.83
20620;BME280;10469;42.720;23.252;2023-05-02T07:02:46;95272.31;;;19.32;74.99
20620;BME280;10469;42.720;23.252;2023-05-02T07:05:12;95266.59;;;19.73;73.72
20620;BME280;10469;42.720;23.252;2023-05-02T07:07:40;95259.91;;;20.47;69.92
20620;BME280;10469;42.720;23.252;2023-05-02T07:10:06;95260.56;;;21.82;61.52
20620;BME280;10469;42.720;23.252;2023-05-02T07:12:32;95259.25;;;20.61;64.29
20620;BME280;10469;42.720;23.252;2023-05-02T07:14:58;95264.53;;;21.38;61.64
20620;BME280;10469;42.720;23.252;2023-05-02T07:17:23;95263.78;;;19.49;69.19
20620;BME280;10469;42.720;23.252;2023-05-02T07:19:50;95274.47;;;20.09;69.14
20620;BME280;10469;42.720;23.252;2023-05-02T07:22:15;95285.69;;;19.68;64.49
20620;BME280;10469;42.720;23.252;2023-05-02T07:24:41;95268.41;;;20.70;64.29
20620;BME280;10469;42.720;23.252;2023-05-02T07:27:11;95265.00;;;21.77;59.97
20620;BME280;10469;42.720;23.252;2023-05-02T07:29:37;95270.56;;;20.92;59.63
20620;BME280;10469;42.720;23.252;2023-05-02T07:32:04;95267.66;;;21.07;58.97
20620;BME280;10469;42.720;23.252;2023-05-02T07:34:29;95273.34;;;21.29;57.82
20620;BME280;10469;42.720;23.252;2023-05-02T07:36:55;95261.13;;;21.65;56.73
20620;BME280;10469;42.720;23.252;2023-05-02T07:39:21;95262.53;;;22.27;54.27
20620;BME280;10469;42.720;23.252;2023-05-02T07:41:50;95260.94;;;23.09;49.85
20620;BME280;10469;42.720;23.252;2023-05-02T07:46:41;95284.44;;;20.71;55.76
20620;BME280;10469;42.720;23.252;2023-05-02T07:49:07;95276.97;;;20.58;58.10
20620;BME280;10469;42.720;23.252;2023-05-02T07:51:32;95264.66;;;20.08;58.85
20620;BME280;10469;42.720;23.252;2023-05-02T07:53:58;95272.19;;;21.73;56.44
20620;BME280;10469;42.720;23.252;2023-05-02T07:56:24;95288.53;;;21.17;55.18
20620;BME280;10469;42.720;23.252;2023-05-02T07:58:50;95276.81;;;21.16;55.38
20620;BME280;10469;42.720;23.252;2023-05-02T08:01:16;95275.53;;;21.27;55.23
20620;BME280;10469;42.720;23.252;2023-05-02T08:03:42;95274.78;;;23.40;49.31
20620;BME280;10469;42.720;23.252;2023-05-02T08:06:07;95263.28;;;24.11;48.36
20620;BME280;10469;42.720;23.252;2023-05-02T08:08:34;95281.44;;;21.91;51.19
20620;BME280;10469;42.720;23.252;2023-05-02T08:11:00;95270.78;;;22.55;50.65
20620;BME280;10469;42.720;23.252;2023-05-02T08:13:25;95262.09;;;23.44;50.03
20620;BME280;10469;42.720;23.252;2023-05-02T08:15:51;95253.00;;;23.35;46.92
20620;BME280;10469;42.720;23.252;2023-05-02T08:18:24;95256.41;;;24.22;44.82
20620;BME280;10469;42.720;23.252;2023-05-02T08:20:50;95264.47;;;24.18;42.83
20620;BME280;10469;42.720;23.252;2023-05-02T08:23:16;95247.81;;;24.77;42.90
20620;BME280;10469;42.720;23.252;2023-05-02T08:25:41;95257.22;;;24.93;41.17
20620;BME280;10469;42.720;23.252;2023-05-02T08:28:07;95265.06;;;24.15;43.51
20620;BME280;10469;42.720;23.252;2023-05-02T08:30:32;95274.38;;;22.23;46.47
20620;BME280;10469;42.720;23.252;2023-05-02T08:32:58;95255.47;;;23.09;46.36
20620;BME280;10469;42.720;23.252;2023-05-02T08:35:29;95257.31;;;24.71;42.88
20620;BME280;10469;42.720;23.252;2023-05-02T08:37:55;95256.88;;;23.93;42.85
20620;BME280;10469;42.720;23.252;2023-05-02T08:40:21;95247.56;;;24.96;40.47
20620;BME280;10469;42.720;23.252;2023-05-02T08:42:48;95259.38;;;23.31;44.23
20620;BME280;10469;42.720;23.252;2023-05-02T08:45:13;95251.88;;;25.71;39.63
20620;BME280;10469;42.720;23.252;2023-05-02T08:47:43;95261.72;;;23.73;41.92
20620;BME280;10469;42.720;23.252;2023-05-02T08:50:10;95264.50;;;24.49;40.50
20620;BME280;10469;42.720;23.252;2023-05-02T08:52:37;95260.78;;;24.00;41.69
20620;BME280;10469;42.720;23.252;2023-05-02T08:55:05;95244.84;;;23.44;43.09
20620;BME280;10469;42.720;23.252;2023-05-02T08:57:31;95249.97;;;24.26;40.85
20620;BME280;10469;42.720;23.252;2023-05-02T08:59:57;95246.88;;;24.82;39.58
20620;BME280;10469;42.720;23.252;2023-05-02T09:05:26;95252.03;;;23.53;41.29
20620;BME280;10469;42.720;23.252;2023-05-02T09:07:52;95246.28;;;25.02;39.79
20620;BME280;10469;42.720;23.252;2023-05-02T09:10:17;95257.97;;;23.33;41.67
20620;BME280;10469;42.720;23.252;2023-05-02T09:12:43;95255.75;;;21.41;45.87
20620;BME280;10469;42.720;23.252;2023-05-02T09:15:16;95252.56;;;21.52;47.36
20620;BME280;10469;42.720;23.252;2023-05-02T09:17:43;95230.16;;;20.56;49.26
20620;BME280;10469;42.720;23.252;2023-05-02T09:20:10;95242.72;;;22.36;45.40
20620;BME280;10469;42.720;23.252;2023-05-02T09:22:36;95249.16;;;21.61;45.67
20620;BME280;10469;42.720;23.252;2023-05-02T09:25:06;95253.31;;;21.20;47.87
20620;BME280;10469;42.720;23.252;2023-05-02T09:27:54;95260.75;;;19.50;53.20
20620;BME280;10469;42.720;23.252;2023-05-02T09:30:24;95262.31;;;19.22;55.13
20620;BME280;10469;42.720;23.252;2023-05-02T09:32:51;95264.78;;;18.54;58.05
20620;BME280;10469;42.720;23.252;2023-05-02T09:35:18;95251.72;;;18.61;59.26
20620;BME280;10469;42.720;23.252;2023-05-02T09:37:52;95243.44;;;18.97;57.86
20620;BME280;10469;42.720;23.252;2023-05-02T09:40:18;95233.94;;;19.39;55.60
20620;BME280;10469;42.720;23.252;2023-05-02T09:42:45;95248.94;;;19.31;55.61
20620;BME280;10469;42.720;23.252;2023-05-02T09:45:24;95253.69;;;18.45;59.48
20620;BME280;10469;42.720;23.252;2023-05-02T09:47:51;95239.06;;;19.01;56.28
20620;BME280;10469;42.720;23.252;2023-05-02T09:50:36;95217.72;;;19.92;54.07
20620;BME280;10469;42.720;23.252;2023-05-02T09:53:04;95234.25;;;18.88;55.97
20620;BME280;10469;42.720;23.252;2023-05-02T09:55:30;95228.81;;;20.00;56.39
20620;BME280;10469;42.720;23.252;2023-05-02T09:57:56;95207.56;;;20.93;49.79
20620;BME280;10469;42.720;23.252;2023-05-02T10:00:21;95229.41;;;20.45;51.42
20620;BME280;10469;42.720;23.252;2023-05-02T10:02:49;95240.53;;;20.25;51.09
20620;BME280;10469;42.720;23.252;2023-05-02T10:05:16;95218.31;;;20.66;50.15
20620;BME280;10469;42.720;23.252;2023-05-02T10:07:44;95207.13;;;21.62;48.13
20620;BME280;10469;42.720;23.252;2023-05-02T10:10:13;95206.09;;;22.50;45.94
20620;BME280;10469;42.720;23.252;2023-05-02T10:12:41;95191.06;;;23.62;44.43
20620;BME280;10469;42.720;23.252;2023-05-02T10:15:09;95195.16;;;25.75;37.83
20620;BME280;10469;42.720;23.252;2023-05-02T10:17:39;95205.28;;;24.88;37.68
20620;BME280;10469;42.720;23.252;2023-05-02T10:20:07;95186.72;;;24.06;38.91
20620;BME280;10469;42.720;23.252;2023-05-02T10:22:35;95198.97;;;23.41;40.65
20620;BME280;10469;42.720;23.252;2023-05-02T10:25:02;95200.84;;;23.99;39.88
20620;BME280;10469;42.720;23.252;2023-05-02T10:27:29;95194.84;;;24.19;37.74
20620;BME280;10469;42.720;23.252;2023-05-02T10:29:57;95198.38;;;22.66;40.21
20620;BME280;10469;42.720;23.252;2023-05-02T10:32:23;95190.34;;;23.70;39.58
20620;BME280;10469;42.720;23.252;2023-05-02T10:34:53;95181.28;;;25.37;35.75
20620;BME280;10469;42.720;23.252;2023-05-02T10:37:21;95180.03;;;26.25;34.18
20620;BME280;10469;42.720;23.252;2023-05-02T10:39:48;95179.00;;;26.56;33.78
20620;BME280;10469;42.720;23.252;2023-05-02T10:42:14;95172.47;;;27.40;33.03
20620;BME280;10469;42.720;23.252;2023-05-02T10:44:41;95176.75;;;26.49;32.47
20620;BME280;10469;42.720;23.252;2023-05-02T10:47:25;95165.28;;;24.96;34.03
20620;BME280;10469;42.720;23.252;2023-05-02T10:49:55;95162.44;;;24.21;36.31
20620;BME280;10469;42.720;23.252;2023-05-02T10:52:41;95171.66;;;24.83;35.22
20620;BME280;10469;42.720;23.252;2023-05-02T10:55:22;95176.75;;;25.85;33.61
20620;BME280;10469;42.720;23.252;2023-05-02T11:00:41;95156.53;;;25.98;33.46
20620;BME280;10469;42.720;23.252;2023-05-02T11:03:06;95162.25;;;25.41;33.90
20620;BME280;10469;42.720;23.252;2023-05-02T11:06:04;95157.13;;;24.73;34.49
20620;BME280;10469;42.720;23.252;2023-05-02T11:08:31;95156.22;;;23.98;35.82
20620;BME280;10469;42.720;23.252;2023-05-02T11:10:56;95159.50;;;24.18;35.91
20620;BME280;10469;42.720;23.252;2023-05-02T11:13:54;95158.75;;;23.95;36.02
20620;BME280;10469;42.720;23.252;2023-05-02T11:16:20;95157.06;;;23.32;36.47
20620;BME280;10469;42.720;23.252;2023-05-02T11:19:11;95160.75;;;23.36;37.67
20620;BME280;10469;42.720;23.252;2023-05-02T11:21:37;95148.91;;;23.40;37.71
20620;BME280;10469;42.720;23.252;2023-05-02T11:24:41;95150.66;;;23.00;37.50
20620;BME280;10469;42.720;23.252;2023-05-02T11:29:57;95139.88;;;23.40;37.14
20620;BME280;10469;42.720;23.252;2023-05-02T11:32:24;95147.66;;;22.05;39.70
20620;BME280;10469;42.720;23.252;2023-05-02T11:35:17;95133.56;;;21.70;41.13
20620;BME280;10469;42.720;23.252;2023-05-02T11:38:03;95126.53;;;22.11;40.93
20620;BME280;10469;42.720;23.252;2023-05-02T11:40:30;95140.72;;;21.66;40.98
20620;BME280;10469;42.720;23.252;2023-05-02T11:42:57;95138.00;;;22.13;41.21
20620;BME280;10469;42.720;23.252;2023-05-02T11:45:36;95134.81;;;21.92;40.61
20620;BME280;10469;42.720;23.252;2023-05-02T11:48:05;95127.47;;;22.34;39.79
20620;BME280;10469;42.720;23.252;2023-05-02T11:50:44;95110.69;;;22.13;39.86
20620;BME280;10469;42.720;23.252;2023-05-02T11:53:13;95116.00;;;22.04;41.23
20620;BME280;10469;42.720;23.252;2023-05-02T11:58:12;95110.78;;;21.28;41.86
20620;BME280;10469;42.720;23.252;2023-05-02T12:00:39;95124.41;;;21.47;41.65
20620;BME280;10469;42.720;23.252;2023-05-02T12:03:04;95115.31;;;21.38;42.70
20620;BME280;10469;42.720;23.252;2023-05-02T12:05:30;95083.63;;;21.84;42.23
20620;BME280;10469;42.720;23.252;2023-05-02T12:07:56;95112.06;;;21.36;42.68
20620;BME280;10469;42.720;23.252;2023-05-02T12:10:22;95103.28;;;20.69;43.76
20620;BME280;10469;42.720;23.252;2023-05-02T12:12:48;95110.13;;;20.66;44.89
20620;BME280;10469;42.720;23.252;2023-05-02T12:15:15;95084.53;;;20.43;45.46
20620;BME280;10469;42.720;23.252;2023-05-02T12:17:44;95108.28;;;20.38;45.13
20620;BME280;10469;42.720;23.252;2023-05-02T12:20:10;95079.22;;;20.33;46.43
20620;BME280;10469;42.720;23.252;2023-05-02T12:22:36;95086.47;;;20.80;45.74
20620;BME280;10469;42.720;23.252;2023-05-02T12:25:03;95092.09;;;20.51;46.04
20620;BME280;10469;42.720;23.252;2023-05-02T12:27:30;95102.19;;;20.46;46.55
20620;BME280;10469;42.720;23.252;2023-05-02T12:29:57;95088.69;;;20.17;47.14
20620;BME280;10469;42.720;23.252;2023-05-02T12:32:31;95073.34;;;20.02;47.59
20620;BME280;10469;42.720;23.252;2023-05-02T12:35:01;95077.09;;;20.30;46.45
20620;BME280;10469;42.720;23.252;2023-05-02T12:37:27;95079.97;;;19.96;46.64
20620;BME280;10469;42.720;23.252;2023-05-02T12:39:54;95068.47;;;20.23;46.13
20620;BME280;10469;42.720;23.252;2023-05-02T12:42:22;95043.44;;;20.40;46.46
20620;BME280;10469;42.720;23.252;2023-05-02T12:44:48;95060.03;;;20.62;45.31
20620;BME280;10469;42.720;23.252;2023-05-02T12:47:16;95051.47;;;20.12;44.68
20620;BME280;10469;42.720;23.252;2023-05-02T12:52:18;95045.88;;;20.22;44.35
20620;BME280;10469;42.720;23.252;2023-05-02T12:54:44;95038.97;;;20.30;44.40
20620;BME280;10469;42.720;23.252;2023-05-02T12:57:21;95026.38;;;20.34;43.75
20620;BME280;10469;42.720;23.252;2023-05-02T12:59:47;95031.94;;;20.48;43.95
20620;BME280;10469;42.720;23.252;2023-05-02T13:02:12;95032.72;;;20.48;43.29
20620;BME280;10469;42.720;23.252;2023-05-02T13:04:39;95035.94;;;20.13;44.54
20620;BME280;10469;42.720;23.252;2023-05-02T13:07:06;95009.94;;;20.20;42.86
20620;BME280;10469;42.720;23.252;2023-05-02T13:09:32;95041.66;;;20.11;43.42
20620;BME280;10469;42.720;23.252;2023-05-02T13:11:57;95036.81;;;20.27;43.08
20620;BME280;10469;42.720;23.252;2023-05-02T13:14:24;95028.44;;;19.80;43.32